Ana Sayfa
METAR-TAF:

METAR-TAF

Havaalanları :

Phitsanulok, Tayland

Enlem: 16-46-23N, Boylam: 100-16-56E, yükseklik: 47 m

Güncel hava durumu gözlemi

Rapor saat 14:00 UTC de 2 saat ve 9 dakika önce yapıldı.
Rüzgar batı/kuzeybatıdan 5 kt
Sıcaklık 31°C
Nem 63%
Basınç 1003 hPa
Görüş mesafesi 10 km veya daha fazla
1500 m altında bulut yok ve kümülonimbus yok

METAR: VTPP 161400Z 29005KT CAVOK 31/23 Q1003 NOSIG

Saat: 23:09 (16:09 UTC)

Tahmin

Rapor saat 11:00 UTC de 5 saat ve 9 dakika önce yapıldı.
Ayın 16'si saat 12 UTC'den ayın 17'si saat 12 UTC'ye kadar geçerli Tahmin
Rüzgar güneybatıdan 5 kt
Görüş mesafesi 10 km veya daha fazla
2500 ft yükseklikte parçalı bulutlu

TAF: VTPP 161100Z 1612/1712 22005KT 9999 SCT025

4.000'den fazla havaalanı için hava durumu gözlemleri ve tahminleri (METAR ve TAF raporları).

Kullanılabilir istasyonlar harita üzerinde sarı ve kırmızı noktalarla gösterilir.

İstasyonun adını görmek için fareyi noktanın üzerinde gezdirin.

Sonrasında hava gözlem ve tahminlerini görmek için tıklayın.

Haritayı değiştirmek için: yaklaştırmak için siyah artı işaretli yeşil düğmeye ve uzaklaştırmak için de eksi işaretli düğmeye hızla tıklayın; bitişik haritalar için yeşil okları kullanın.


METAR-TAF: